createdAt,value
2023-01-17T00:02:57.698Z,56.69
2023-01-17T00:10:00.209Z,57.39
2023-01-17T00:17:02.138Z,58.10
2023-01-17T00:24:23.005Z,57.96
2023-01-17T00:31:24.803Z,58.20
2023-01-17T00:38:28.021Z,58.30
2023-01-17T00:45:48.662Z,58.55
2023-01-17T00:53:09.327Z,59.23
2023-01-17T01:00:30.269Z,58.97
2023-01-17T01:07:50.724Z,58.91
2023-01-17T01:15:10.981Z,59.70
2023-01-17T01:22:31.324Z,60.08
2023-01-17T01:29:51.822Z,60.19
2023-01-17T01:36:53.468Z,59.94
2023-01-17T01:43:55.770Z,60.28
2023-01-17T01:50:57.508Z,60.23
2023-01-17T01:58:02.282Z,60.19
2023-01-17T02:05:04.883Z,60.01
2023-01-17T02:12:06.976Z,59.99
2023-01-17T02:19:23.870Z,60.26
2023-01-17T02:26:36.763Z,60.21
2023-01-17T02:33:39.382Z,60.71
2023-01-17T02:40:49.575Z,60.34
2023-01-17T02:47:51.626Z,61.00
2023-01-17T02:55:44.195Z,61.21
2023-01-17T03:02:52.795Z,59.58
2023-01-17T03:10:00.033Z,60.16
2023-01-17T03:17:01.815Z,59.35
2023-01-17T03:24:03.790Z,61.09
2023-01-17T03:31:05.876Z,61.25
2023-01-17T03:38:07.654Z,61.84
2023-01-17T03:45:09.672Z,61.00
2023-01-17T03:52:11.273Z,62.22
2023-01-17T03:59:13.442Z,60.75
2023-01-17T04:06:15.306Z,62.19
2023-01-17T04:13:17.038Z,62.63
2023-01-17T04:20:31.067Z,61.23
2023-01-17T04:27:32.666Z,63.35
2023-01-17T04:34:34.300Z,62.80
2023-01-17T04:41:36.038Z,64.36
2023-01-17T04:48:38.238Z,65.33
2023-01-17T04:55:40.241Z,66.35
2023-01-17T05:02:42.170Z,66.26
2023-01-17T05:09:43.922Z,66.86
2023-01-17T05:16:45.497Z,67.72
2023-01-17T05:23:47.169Z,66.83
2023-01-17T05:30:48.858Z,68.73
2023-01-17T05:37:50.617Z,69.91
2023-01-17T05:44:52.237Z,68.49
2023-01-17T05:51:54.987Z,68.28
2023-01-17T05:58:56.760Z,68.12
2023-01-17T06:05:58.414Z,66.74
2023-01-17T06:13:12.601Z,66.01
2023-01-17T06:20:14.254Z,67.06
2023-01-17T06:27:15.998Z,67.19
2023-01-17T06:34:17.623Z,65.92
2023-01-17T06:41:19.305Z,67.11
2023-01-17T06:48:20.921Z,66.39
2023-01-17T06:55:22.710Z,66.03
2023-01-17T07:02:24.303Z,65.73
2023-01-17T07:09:25.961Z,65.69
2023-01-17T07:16:27.857Z,65.13
2023-01-17T07:23:29.502Z,65.83
2023-01-17T07:30:31.192Z,65.00
2023-01-17T07:37:32.821Z,66.53
2023-01-17T07:44:34.405Z,66.19
2023-01-17T07:51:36.090Z,67.24
2023-01-17T07:58:37.817Z,64.76
2023-01-17T08:05:40.423Z,65.12
2023-01-17T08:12:42.158Z,65.39
2023-01-17T08:19:44.768Z,64.21
2023-01-17T08:26:46.454Z,63.96
2023-01-17T08:33:48.140Z,63.39
2023-01-17T08:40:50.669Z,64.46
2023-01-17T08:47:52.543Z,62.82
2023-01-17T08:54:54.396Z,62.66
2023-01-17T09:01:58.180Z,61.48
2023-01-17T09:09:00.040Z,61.97
2023-01-17T09:16:02.059Z,60.72
2023-01-17T09:23:03.935Z,61.08
2023-01-17T09:30:06.027Z,60.39
2023-01-17T09:37:07.660Z,58.65
2023-01-17T09:44:25.349Z,58.66
2023-01-17T09:51:27.035Z,59.50
2023-01-17T09:58:46.196Z,59.74
2023-01-17T10:05:47.699Z,59.08
2023-01-17T10:13:04.171Z,59.59
2023-01-17T10:20:08.883Z,59.17
2023-01-17T10:27:18.438Z,59.82
2023-01-17T10:34:23.481Z,58.93
2023-01-17T10:41:37.038Z,59.57
2023-01-17T10:48:39.968Z,60.42
2023-01-17T10:55:54.018Z,60.86
2023-01-17T11:02:55.933Z,59.60
2023-01-17T11:09:58.182Z,59.95
2023-01-17T11:17:04.402Z,59.85
2023-01-17T11:24:11.168Z,59.49
2023-01-17T11:31:16.671Z,59.81
2023-01-17T11:38:19.668Z,59.93
2023-01-17T11:45:24.850Z,62.48
2023-01-17T11:52:35.528Z,63.85
2023-01-17T11:59:39.896Z,64.26
2023-01-17T12:07:09.902Z,66.39
2023-01-17T12:14:29.310Z,66.12
2023-01-17T12:21:52.218Z,65.05
2023-01-17T12:29:16.472Z,66.39
2023-01-17T12:36:49.663Z,65.37
2023-01-17T12:43:57.603Z,63.41
2023-01-17T12:51:14.188Z,63.82
2023-01-17T12:58:26.765Z,62.62
2023-01-17T13:05:41.917Z,60.12
2023-01-17T13:12:43.564Z,60.68
2023-01-17T13:19:57.245Z,59.93
2023-01-17T13:27:07.276Z,57.79
2023-01-17T13:34:49.186Z,57.70
2023-01-17T13:41:54.945Z,57.19
2023-01-17T13:49:20.760Z,57.42
2023-01-17T13:56:22.363Z,57.71
2023-01-17T14:03:50.316Z,58.15
2023-01-17T14:10:54.780Z,56.80
2023-01-17T14:18:00.708Z,56.23
2023-01-17T14:25:17.482Z,55.69
2023-01-17T14:32:21.167Z,56.17
2023-01-17T14:39:22.834Z,55.45
2023-01-17T14:46:26.723Z,56.73
2023-01-17T14:53:29.489Z,56.06
2023-01-17T15:00:33.566Z,56.42
2023-01-17T15:07:36.243Z,55.47
2023-01-17T15:14:39.049Z,56.10
2023-01-17T15:21:43.137Z,56.07
2023-01-17T15:28:45.037Z,57.07
2023-01-17T15:35:46.639Z,56.78
2023-01-17T15:43:01.321Z,55.61
2023-01-17T15:50:21.153Z,56.55
2023-01-17T15:57:24.022Z,58.18
2023-01-17T16:04:33.163Z,58.35
2023-01-17T16:11:34.947Z,58.67
2023-01-17T16:18:36.898Z,57.61
2023-01-17T16:25:38.869Z,59.04
2023-01-17T16:32:43.267Z,57.65
2023-01-17T16:39:46.306Z,57.21
2023-01-17T16:46:47.955Z,57.54
2023-01-17T16:53:49.996Z,57.93
2023-01-17T17:00:51.810Z,56.10
2023-01-17T17:07:53.864Z,57.53
2023-01-17T17:14:55.862Z,56.88
2023-01-17T17:21:58.517Z,57.34
2023-01-17T17:29:00.252Z,57.45
2023-01-17T17:36:06.260Z,58.53
2023-01-17T17:43:07.921Z,59.12
2023-01-17T17:50:10.166Z,58.87
2023-01-17T17:57:12.060Z,59.00
2023-01-17T18:04:14.199Z,58.77
2023-01-17T18:11:18.671Z,58.33
2023-01-17T18:18:20.711Z,58.97
2023-01-17T18:25:22.397Z,58.22
2023-01-17T18:32:24.278Z,58.38
2023-01-17T18:39:27.345Z,59.51
2023-01-17T18:46:29.215Z,59.51
2023-01-17T18:53:31.493Z,59.61
2023-01-17T19:00:33.404Z,58.83
2023-01-17T19:07:35.618Z,59.54
2023-01-17T19:14:37.291Z,60.65
2023-01-17T19:21:39.115Z,59.97
2023-01-17T19:28:41.679Z,60.35
2023-01-17T19:35:43.374Z,60.93
2023-01-17T19:42:45.152Z,61.35
2023-01-17T19:49:46.884Z,62.32
2023-01-17T19:56:49.373Z,62.84
2023-01-17T20:03:51.153Z,62.34
2023-01-17T20:10:53.083Z,62.26
2023-01-17T20:17:55.114Z,62.30
2023-01-17T20:24:57.005Z,62.39
2023-01-17T20:31:58.693Z,63.43
2023-01-17T20:39:02.743Z,63.24
2023-01-17T20:46:05.530Z,63.74
2023-01-17T20:53:07.581Z,63.50
2023-01-17T21:00:09.914Z,64.75
2023-01-17T21:07:13.772Z,64.75
2023-01-17T21:14:15.625Z,65.10
2023-01-17T21:21:19.272Z,65.55
2023-01-17T21:28:21.623Z,66.13
2023-01-17T21:35:23.715Z,67.44
2023-01-17T21:42:26.401Z,67.23
2023-01-17T21:49:29.051Z,67.00
2023-01-17T21:56:49.485Z,67.24
2023-01-17T22:03:52.939Z,68.16
2023-01-17T22:10:54.573Z,68.32
2023-01-17T22:17:57.018Z,68.68
2023-01-17T22:24:58.870Z,67.99
2023-01-17T22:32:00.532Z,68.00
2023-01-17T22:39:02.219Z,67.92
2023-01-17T22:46:07.715Z,68.32
2023-01-17T22:53:10.318Z,68.38
2023-01-17T23:00:14.489Z,68.52
2023-01-17T23:07:16.317Z,68.69
2023-01-17T23:14:53.046Z,68.35
2023-01-17T23:22:17.242Z,67.82
2023-01-17T23:29:19.275Z,68.00
2023-01-17T23:36:20.961Z,68.00
2023-01-17T23:43:25.713Z,67.58
2023-01-17T23:50:27.432Z,67.25
2023-01-17T23:57:29.026Z,67.66
